createdAt,value
2023-01-08T00:01:09.388Z,7.50
2023-01-08T00:03:37.296Z,7.40
2023-01-08T00:06:05.048Z,7.30
2023-01-08T00:08:32.608Z,7.30
2023-01-08T00:10:59.920Z,7.50
2023-01-08T00:13:27.191Z,7.40
2023-01-08T00:15:54.392Z,7.30
2023-01-08T00:18:21.739Z,7.30
2023-01-08T00:20:48.783Z,7.20
2023-01-08T00:23:16.991Z,7.10
2023-01-08T00:25:44.259Z,7.00
2023-01-08T00:28:11.156Z,6.90
2023-01-08T00:30:38.153Z,6.90
2023-01-08T00:33:05.050Z,6.70
2023-01-08T00:35:32.198Z,6.70
2023-01-08T00:37:59.007Z,6.50
2023-01-08T00:40:26.027Z,6.50
2023-01-08T00:42:52.877Z,6.60
2023-01-08T00:45:19.739Z,6.60
2023-01-08T00:47:46.647Z,6.50
2023-01-08T00:50:13.811Z,6.60
2023-01-08T00:52:40.683Z,6.70
2023-01-08T00:55:07.934Z,6.60
2023-01-08T00:57:38.589Z,6.60
2023-01-08T01:00:07.910Z,6.50
2023-01-08T01:02:35.439Z,6.50
2023-01-08T01:05:02.399Z,6.80
2023-01-08T01:07:29.306Z,6.70
2023-01-08T01:09:56.249Z,6.50
2023-01-08T01:12:23.196Z,6.50
2023-01-08T01:14:50.072Z,6.50
2023-01-08T01:17:16.980Z,6.40
2023-01-08T01:19:44.043Z,6.30
2023-01-08T01:22:10.932Z,6.30
2023-01-08T01:24:37.876Z,6.30
2023-01-08T01:27:04.930Z,6.40
2023-01-08T01:29:31.777Z,6.50
2023-01-08T01:31:58.709Z,6.60
2023-01-08T01:34:25.725Z,6.80
2023-01-08T01:36:52.511Z,6.80
2023-01-08T01:39:20.050Z,6.90
2023-01-08T01:41:47.527Z,7.00
2023-01-08T01:44:34.248Z,7.20
2023-01-08T01:47:02.903Z,7.20
2023-01-08T01:49:29.849Z,7.10
2023-01-08T01:51:57.783Z,7.30
2023-01-08T01:54:24.995Z,7.30
2023-01-08T01:56:52.009Z,7.40
2023-01-08T01:59:18.912Z,7.40
2023-01-08T02:01:46.009Z,7.40
2023-01-08T02:04:13.506Z,7.30
2023-01-08T02:06:49.673Z,7.30
2023-01-08T02:09:28.357Z,7.20
2023-01-08T02:12:19.486Z,7.10
2023-01-08T02:14:49.412Z,7.10
2023-01-08T02:17:17.885Z,7.00
2023-01-08T02:19:56.044Z,7.00
2023-01-08T02:22:43.698Z,7.10
2023-01-08T02:25:31.149Z,7.10
2023-01-08T02:27:59.952Z,7.00
2023-01-08T02:30:27.157Z,7.00
2023-01-08T02:32:54.037Z,7.00
2023-01-08T02:35:20.974Z,7.00
2023-01-08T02:37:47.798Z,7.10
2023-01-08T02:40:14.802Z,7.10
2023-01-08T02:42:47.678Z,7.10
2023-01-08T02:45:35.510Z,7.20
2023-01-08T02:48:02.299Z,7.30
2023-01-08T02:50:32.896Z,7.30
2023-01-08T02:53:03.965Z,7.20
2023-01-08T02:55:32.134Z,7.20
2023-01-08T02:57:59.394Z,7.20
2023-01-08T03:00:26.598Z,7.00
2023-01-08T03:02:57.973Z,7.10
2023-01-08T03:05:26.516Z,7.20
2023-01-08T03:07:54.652Z,7.10
2023-01-08T03:10:22.851Z,7.20
2023-01-08T03:12:57.506Z,7.20
2023-01-08T03:15:27.331Z,7.30
2023-01-08T03:17:57.703Z,7.40
2023-01-08T03:20:25.018Z,7.30
2023-01-08T03:22:53.531Z,7.30
2023-01-08T03:25:22.008Z,7.30
2023-01-08T03:27:51.128Z,7.30
2023-01-08T03:30:18.736Z,7.30
2023-01-08T03:32:47.072Z,7.20
2023-01-08T03:35:15.735Z,7.20
2023-01-08T03:37:45.620Z,7.20
2023-01-08T03:40:26.025Z,7.20
2023-01-08T03:42:52.941Z,7.20
2023-01-08T03:45:20.785Z,7.20
2023-01-08T03:47:48.490Z,7.30
2023-01-08T03:50:17.594Z,7.40
2023-01-08T03:52:44.477Z,7.50
2023-01-08T03:55:11.320Z,7.50
2023-01-08T03:57:38.213Z,7.60
2023-01-08T04:00:05.542Z,7.50
2023-01-08T04:02:32.419Z,7.60
2023-01-08T04:04:59.387Z,7.60
2023-01-08T04:07:26.197Z,7.50
2023-01-08T04:09:53.049Z,7.40
2023-01-08T04:12:19.924Z,7.50
2023-01-08T04:14:46.704Z,7.30
2023-01-08T04:17:13.863Z,7.30
2023-01-08T04:19:40.682Z,7.30
2023-01-08T04:22:09.658Z,7.20
2023-01-08T04:24:36.516Z,7.20
2023-01-08T04:27:03.411Z,7.20
2023-01-08T04:29:30.228Z,7.20
2023-01-08T04:31:57.112Z,7.20
2023-01-08T04:34:23.994Z,7.30
2023-01-08T04:36:50.808Z,7.10
2023-01-08T04:39:17.797Z,7.20
2023-01-08T04:41:44.659Z,7.30
2023-01-08T04:44:11.505Z,7.20
2023-01-08T04:46:38.489Z,7.20
2023-01-08T04:49:05.416Z,7.60
2023-01-08T04:51:32.262Z,7.50
2023-01-08T04:53:59.108Z,7.30
2023-01-08T04:56:26.065Z,7.20
2023-01-08T04:58:53.081Z,7.30
2023-01-08T05:01:21.424Z,7.20
2023-01-08T05:03:48.693Z,7.40
2023-01-08T05:06:15.529Z,7.30
2023-01-08T05:08:42.372Z,7.20
2023-01-08T05:11:09.268Z,7.00
2023-01-08T05:13:36.174Z,6.90
2023-01-08T05:16:03.306Z,6.90
2023-01-08T05:18:30.565Z,7.00
2023-01-08T05:21:04.244Z,6.90
2023-01-08T05:23:32.229Z,7.20
2023-01-08T05:26:00.139Z,7.20
2023-01-08T05:28:27.449Z,7.10
2023-01-08T05:30:55.546Z,7.00
2023-01-08T05:33:23.047Z,6.90
2023-01-08T05:35:49.993Z,6.80
2023-01-08T05:38:16.771Z,6.70
2023-01-08T05:40:43.940Z,6.70
2023-01-08T05:43:11.038Z,6.70
2023-01-08T05:45:37.856Z,6.70
2023-01-08T05:48:05.265Z,6.70
2023-01-08T05:50:32.055Z,6.80
2023-01-08T05:52:59.672Z,7.00
2023-01-08T05:55:26.551Z,7.00
2023-01-08T05:57:53.425Z,6.90
2023-01-08T06:00:20.377Z,7.10
2023-01-08T06:02:47.837Z,7.00
2023-01-08T06:05:15.063Z,7.00
2023-01-08T06:07:41.929Z,6.80
2023-01-08T06:10:08.962Z,6.80
2023-01-08T06:12:35.930Z,6.80
2023-01-08T06:15:03.310Z,6.80
2023-01-08T06:17:30.156Z,6.80
2023-01-08T06:19:57.032Z,6.80
2023-01-08T06:22:23.891Z,6.80
2023-01-08T06:24:50.737Z,6.90
2023-01-08T06:27:17.688Z,6.90
2023-01-08T06:29:44.457Z,6.90
2023-01-08T06:32:11.282Z,6.80
2023-01-08T06:34:38.128Z,6.80
2023-01-08T06:37:04.952Z,6.70
2023-01-08T06:39:31.853Z,6.60
2023-01-08T06:41:58.974Z,6.60
2023-01-08T06:44:25.960Z,6.60
2023-01-08T06:46:52.876Z,6.60
2023-01-08T06:49:20.588Z,6.60
2023-01-08T06:51:47.496Z,6.60
2023-01-08T06:54:14.320Z,6.70
2023-01-08T06:56:53.076Z,6.80
2023-01-08T06:59:21.087Z,6.70
2023-01-08T07:01:48.022Z,6.70
2023-01-08T07:04:15.110Z,6.70
2023-01-08T07:06:42.039Z,6.70
2023-01-08T07:09:12.121Z,6.70
2023-01-08T07:11:39.211Z,6.70
2023-01-08T07:14:06.089Z,6.70
2023-01-08T07:16:33.141Z,6.60
2023-01-08T07:19:00.155Z,6.70
2023-01-08T07:21:27.040Z,6.80
2023-01-08T07:23:53.948Z,6.70
2023-01-08T07:26:20.880Z,6.80
2023-01-08T07:28:47.721Z,6.80
2023-01-08T07:31:14.629Z,6.70
2023-01-08T07:33:41.448Z,6.70
2023-01-08T07:36:08.610Z,6.80
2023-01-08T07:38:35.459Z,6.80
2023-01-08T07:41:02.437Z,6.90
2023-01-08T07:43:30.169Z,6.90
2023-01-08T07:45:57.787Z,6.90
2023-01-08T07:48:24.677Z,6.90
2023-01-08T07:50:51.556Z,7.10
2023-01-08T07:53:18.547Z,7.10
2023-01-08T07:55:45.430Z,7.20
2023-01-08T07:58:13.541Z,7.20
2023-01-08T08:00:40.475Z,7.30
2023-01-08T08:03:09.165Z,7.20
2023-01-08T08:05:36.164Z,7.20
2023-01-08T08:08:07.333Z,7.20
2023-01-08T08:10:34.144Z,7.20
2023-01-08T08:13:00.991Z,7.30
2023-01-08T08:15:27.867Z,7.20
2023-01-08T08:17:54.760Z,7.10
2023-01-08T08:20:21.553Z,7.10
2023-01-08T08:22:48.386Z,7.10
2023-01-08T08:25:15.435Z,7.10
2023-01-08T08:27:43.160Z,7.00
2023-01-08T08:30:10.567Z,7.00
2023-01-08T08:32:37.804Z,7.10
2023-01-08T08:35:05.135Z,7.10
2023-01-08T08:37:32.030Z,7.10
2023-01-08T08:39:58.808Z,7.20
2023-01-08T08:42:25.693Z,7.20
2023-01-08T08:44:52.513Z,7.20
2023-01-08T08:47:19.366Z,7.20
2023-01-08T08:49:46.191Z,7.30
2023-01-08T08:52:13.024Z,7.30
2023-01-08T08:54:41.619Z,7.30
2023-01-08T08:57:09.296Z,7.30
2023-01-08T08:59:36.444Z,7.30
2023-01-08T09:02:03.520Z,7.40
2023-01-08T09:04:31.512Z,7.50
2023-01-08T09:06:58.579Z,7.50
2023-01-08T09:09:26.011Z,7.60
2023-01-08T09:11:53.380Z,7.70
2023-01-08T09:14:20.765Z,7.70
2023-01-08T09:16:47.657Z,7.70
2023-01-08T09:19:14.530Z,7.70
2023-01-08T09:21:41.308Z,7.70
2023-01-08T09:24:08.365Z,7.80
2023-01-08T09:26:35.311Z,7.80
2023-01-08T09:29:02.318Z,7.90
2023-01-08T09:31:29.220Z,7.90
2023-01-08T09:33:56.197Z,7.90
2023-01-08T09:36:22.994Z,8.00
2023-01-08T09:38:49.840Z,7.90
2023-01-08T09:41:22.480Z,7.90
2023-01-08T09:43:51.158Z,8.00
2023-01-08T09:46:19.660Z,8.10
2023-01-08T09:48:46.512Z,8.00
2023-01-08T09:51:14.545Z,8.10
2023-01-08T09:53:42.756Z,8.00
2023-01-08T09:56:14.499Z,8.10
2023-01-08T09:58:44.640Z,8.20
2023-01-08T10:01:13.665Z,8.20
2023-01-08T10:03:45.342Z,8.20
2023-01-08T10:06:13.476Z,8.20
2023-01-08T10:08:40.438Z,8.20
2023-01-08T10:11:07.970Z,8.20
2023-01-08T10:13:35.677Z,8.20
2023-01-08T10:16:05.367Z,8.30
2023-01-08T10:18:32.957Z,8.30
2023-01-08T10:20:59.835Z,8.30
2023-01-08T10:23:26.735Z,8.60
2023-01-08T10:25:53.715Z,8.50
2023-01-08T10:28:25.037Z,8.40
2023-01-08T10:30:53.054Z,8.50
2023-01-08T10:33:45.978Z,8.70
2023-01-08T10:36:18.468Z,8.60
2023-01-08T10:38:51.121Z,8.70
2023-01-08T10:41:18.549Z,8.90
2023-01-08T10:43:51.903Z,8.90
2023-01-08T10:46:30.936Z,9.00
2023-01-08T10:48:59.210Z,9.00
2023-01-08T10:51:30.224Z,9.00
2023-01-08T10:54:01.775Z,9.00
2023-01-08T10:56:29.936Z,9.00
2023-01-08T10:58:56.893Z,9.20
2023-01-08T11:01:31.583Z,9.10
2023-01-08T11:04:04.862Z,9.30
2023-01-08T11:06:39.749Z,9.30
2023-01-08T11:09:23.044Z,9.40
2023-01-08T11:11:50.117Z,9.50
2023-01-08T11:14:19.928Z,9.70
2023-01-08T11:16:47.020Z,9.70
2023-01-08T11:19:19.326Z,9.80
2023-01-08T11:22:02.884Z,9.70
2023-01-08T11:24:36.881Z,9.90
2023-01-08T11:27:03.696Z,9.80
2023-01-08T11:29:41.394Z,9.80
2023-01-08T11:32:08.239Z,9.80
2023-01-08T11:34:39.216Z,9.80
2023-01-08T11:37:11.757Z,9.90
2023-01-08T11:39:38.914Z,10.00
2023-01-08T11:42:05.716Z,10.20
2023-01-08T11:44:47.259Z,10.20
2023-01-08T11:47:18.199Z,10.20
2023-01-08T11:50:05.270Z,10.30
2023-01-08T11:52:35.283Z,10.40
2023-01-08T11:55:11.174Z,10.50
2023-01-08T11:57:58.245Z,10.60
2023-01-08T12:00:31.157Z,10.50
2023-01-08T12:02:59.601Z,10.60
2023-01-08T12:05:26.515Z,10.70
2023-01-08T12:08:28.604Z,10.70
2023-01-08T12:11:14.890Z,10.90
2023-01-08T12:13:50.840Z,11.00
2023-01-08T12:16:32.826Z,11.10
2023-01-08T12:18:59.728Z,11.20
2023-01-08T12:21:26.528Z,11.40
2023-01-08T12:24:00.304Z,11.70
2023-01-08T12:26:27.090Z,11.70
2023-01-08T12:28:53.866Z,11.60
2023-01-08T12:31:20.648Z,11.40
2023-01-08T12:33:50.440Z,11.10
2023-01-08T12:36:37.841Z,11.20
2023-01-08T12:39:08.963Z,11.30
2023-01-08T12:41:36.194Z,11.50
2023-01-08T12:44:04.409Z,11.50
2023-01-08T12:46:35.549Z,11.30
2023-01-08T12:49:04.420Z,11.10
2023-01-08T12:51:33.941Z,10.90
2023-01-08T12:54:00.791Z,10.70
2023-01-08T12:56:27.644Z,10.70
2023-01-08T12:58:55.171Z,10.70
2023-01-08T13:01:42.377Z,10.70
2023-01-08T13:04:10.352Z,10.70
2023-01-08T13:06:37.264Z,10.60
2023-01-08T13:09:04.535Z,10.50
2023-01-08T13:11:33.535Z,10.40
2023-01-08T13:14:02.081Z,10.30
2023-01-08T13:16:29.425Z,10.30
2023-01-08T13:19:03.622Z,10.30
2023-01-08T13:21:42.587Z,10.30
2023-01-08T13:24:29.682Z,10.30
2023-01-08T13:26:57.470Z,10.40
2023-01-08T13:29:26.467Z,10.60
2023-01-08T13:31:53.750Z,10.70
2023-01-08T13:34:37.441Z,10.60
2023-01-08T13:37:05.354Z,10.60
2023-01-08T13:39:34.009Z,10.70
2023-01-08T13:42:02.537Z,10.80
2023-01-08T13:44:42.408Z,11.00
2023-01-08T13:47:20.015Z,11.00
2023-01-08T13:49:50.094Z,10.90
2023-01-08T13:52:26.123Z,10.90
2023-01-08T13:54:54.391Z,11.00
2023-01-08T13:57:22.776Z,11.00
2023-01-08T13:59:52.179Z,10.90
2023-01-08T14:02:24.157Z,10.90
2023-01-08T14:04:51.641Z,11.00
2023-01-08T14:07:18.631Z,11.10
2023-01-08T14:09:45.730Z,11.20
2023-01-08T14:12:14.462Z,11.20
2023-01-08T14:14:43.665Z,11.40
2023-01-08T14:17:17.255Z,11.40
2023-01-08T14:19:44.447Z,11.40
2023-01-08T14:22:19.492Z,11.10
2023-01-08T14:24:54.374Z,11.10
2023-01-08T14:27:23.103Z,10.90
2023-01-08T14:29:49.907Z,10.80
2023-01-08T14:32:18.272Z,10.90
2023-01-08T14:34:45.764Z,10.90
2023-01-08T14:37:13.513Z,11.10
2023-01-08T14:39:40.397Z,11.10
2023-01-08T14:42:35.233Z,11.10
2023-01-08T14:45:04.462Z,11.00
2023-01-08T14:47:35.395Z,10.90
2023-01-08T14:50:02.356Z,10.90
2023-01-08T14:52:29.301Z,10.90
2023-01-08T14:54:59.819Z,10.70
2023-01-08T14:57:27.165Z,10.70
2023-01-08T14:59:56.021Z,10.60
2023-01-08T15:02:26.696Z,10.40
2023-01-08T15:05:04.020Z,10.40
2023-01-08T15:07:31.015Z,10.30
2023-01-08T15:09:59.216Z,10.40
2023-01-08T15:12:27.374Z,10.40
2023-01-08T15:14:55.344Z,10.40
2023-01-08T15:17:23.526Z,10.40
2023-01-08T15:19:59.880Z,10.30
2023-01-08T15:22:27.539Z,10.30
2023-01-08T15:24:58.263Z,10.30
2023-01-08T15:27:25.535Z,10.30
2023-01-08T15:29:59.772Z,10.30
2023-01-08T15:32:37.331Z,10.20
2023-01-08T15:35:17.680Z,10.20
2023-01-08T15:37:44.716Z,10.30
2023-01-08T15:40:12.167Z,10.20
2023-01-08T15:42:57.798Z,10.20
2023-01-08T15:45:29.117Z,10.20
2023-01-08T15:47:56.231Z,10.20
2023-01-08T15:50:24.456Z,10.20
2023-01-08T15:52:51.353Z,10.20
2023-01-08T15:55:19.378Z,10.10
2023-01-08T15:57:46.533Z,10.00
2023-01-08T16:00:14.391Z,10.00
2023-01-08T16:02:42.890Z,10.10
2023-01-08T16:05:11.212Z,10.10
2023-01-08T16:07:38.293Z,10.10
2023-01-08T16:10:05.724Z,10.10
2023-01-08T16:12:32.584Z,10.00
2023-01-08T16:14:59.410Z,10.00
2023-01-08T16:17:28.511Z,10.00
2023-01-08T16:19:55.369Z,9.90
2023-01-08T16:22:22.219Z,10.00
2023-01-08T16:24:49.058Z,9.90
2023-01-08T16:27:15.890Z,10.00
2023-01-08T16:29:42.834Z,10.00
2023-01-08T16:32:09.712Z,10.00
2023-01-08T16:34:36.667Z,9.90
2023-01-08T16:37:03.710Z,9.90
2023-01-08T16:39:32.282Z,9.90
2023-01-08T16:41:59.115Z,9.90
2023-01-08T16:44:29.958Z,9.80
2023-01-08T16:46:57.515Z,9.80
2023-01-08T16:49:24.596Z,9.80
2023-01-08T16:51:51.627Z,9.80
2023-01-08T16:54:18.619Z,9.80
2023-01-08T16:56:45.777Z,9.80
2023-01-08T16:59:22.707Z,9.80
2023-01-08T17:01:50.645Z,9.70
2023-01-08T17:04:17.570Z,9.60
2023-01-08T17:06:44.445Z,9.60
2023-01-08T17:09:11.879Z,9.60
2023-01-08T17:11:38.937Z,9.60
2023-01-08T17:14:05.777Z,9.60
2023-01-08T17:16:32.635Z,9.60
2023-01-08T17:18:59.573Z,9.70
2023-01-08T17:21:26.545Z,9.60
2023-01-08T17:23:53.405Z,9.60
2023-01-08T17:26:20.448Z,9.70
2023-01-08T17:28:47.448Z,9.70
2023-01-08T17:31:16.036Z,9.60
2023-01-08T17:33:44.361Z,9.60
2023-01-08T17:36:14.724Z,9.60
2023-01-08T17:38:43.032Z,9.70
2023-01-08T17:41:09.985Z,9.70
2023-01-08T17:43:37.195Z,9.60
2023-01-08T17:46:04.985Z,9.50
2023-01-08T17:48:32.019Z,9.60
2023-01-08T17:51:00.517Z,9.50
2023-01-08T17:53:27.871Z,9.50
2023-01-08T17:55:54.737Z,9.50
2023-01-08T17:58:21.614Z,9.50
2023-01-08T18:00:48.638Z,9.50
2023-01-08T18:03:15.535Z,9.50
2023-01-08T18:05:42.421Z,9.60
2023-01-08T18:08:09.359Z,9.60
2023-01-08T18:10:37.059Z,9.60
2023-01-08T18:13:04.181Z,9.50
2023-01-08T18:15:32.462Z,9.50
2023-01-08T18:18:00.901Z,9.50
2023-01-08T18:20:28.527Z,9.60
2023-01-08T18:22:55.576Z,9.40
2023-01-08T18:25:22.384Z,9.50
2023-01-08T18:27:49.314Z,9.50
2023-01-08T18:30:16.216Z,9.50
2023-01-08T18:32:43.029Z,9.40
2023-01-08T18:35:09.895Z,9.40
2023-01-08T18:37:36.797Z,9.30
2023-01-08T18:40:03.943Z,9.30
2023-01-08T18:42:32.768Z,9.30
2023-01-08T18:45:00.627Z,9.20
2023-01-08T18:47:28.876Z,9.20
2023-01-08T18:49:58.485Z,9.10
2023-01-08T18:52:25.385Z,9.20
2023-01-08T18:54:53.675Z,9.10
2023-01-08T18:57:20.609Z,9.10
2023-01-08T18:59:50.543Z,9.20
2023-01-08T19:02:21.909Z,9.20
2023-01-08T19:04:49.142Z,9.20
2023-01-08T19:07:17.219Z,9.10
2023-01-08T19:09:44.144Z,9.00
2023-01-08T19:12:11.253Z,9.20
2023-01-08T19:14:38.396Z,9.00
2023-01-08T19:17:06.065Z,8.80
2023-01-08T19:19:32.976Z,8.80
2023-01-08T19:21:59.910Z,8.80
2023-01-08T19:24:26.875Z,9.00
2023-01-08T19:26:53.802Z,9.00
2023-01-08T19:29:20.827Z,9.00
2023-01-08T19:31:47.765Z,8.90
2023-01-08T19:34:14.777Z,8.80
2023-01-08T19:36:43.679Z,8.70
2023-01-08T19:39:11.408Z,8.70
2023-01-08T19:41:57.235Z,8.70
2023-01-08T19:44:24.173Z,8.70
2023-01-08T19:46:51.171Z,8.60
2023-01-08T19:49:18.094Z,8.60
2023-01-08T19:51:44.919Z,8.50
2023-01-08T19:54:12.533Z,8.50
2023-01-08T19:56:39.564Z,8.60
2023-01-08T19:59:06.452Z,8.70
2023-01-08T20:01:33.823Z,8.80
2023-01-08T20:04:00.812Z,8.80
2023-01-08T20:06:28.122Z,8.90
2023-01-08T20:08:57.141Z,9.00
2023-01-08T20:11:24.375Z,9.00
2023-01-08T20:13:51.712Z,9.00
2023-01-08T20:16:19.802Z,9.10
2023-01-08T20:18:46.812Z,8.90
2023-01-08T20:21:17.609Z,8.90
2023-01-08T20:23:44.874Z,8.80
2023-01-08T20:26:14.483Z,8.90
2023-01-08T20:28:41.948Z,8.80
2023-01-08T20:31:10.270Z,8.80
2023-01-08T20:33:37.560Z,8.90
2023-01-08T20:36:11.752Z,8.90
2023-01-08T20:38:38.815Z,8.80
2023-01-08T20:41:06.837Z,8.90
2023-01-08T20:43:34.599Z,9.00
2023-01-08T20:46:01.999Z,8.90
2023-01-08T20:48:31.988Z,9.00
2023-01-08T20:51:02.615Z,8.90
2023-01-08T20:53:30.432Z,8.80
2023-01-08T20:56:00.264Z,8.70
2023-01-08T20:58:27.203Z,8.70
2023-01-08T21:00:54.189Z,8.60
2023-01-08T21:03:21.213Z,8.60
2023-01-08T21:05:48.143Z,8.50
2023-01-08T21:08:14.947Z,8.70
2023-01-08T21:10:41.826Z,8.60
2023-01-08T21:13:09.817Z,8.60
2023-01-08T21:15:37.431Z,8.60
2023-01-08T21:18:04.315Z,8.60
2023-01-08T21:20:31.292Z,8.70
2023-01-08T21:23:00.242Z,8.60
2023-01-08T21:25:27.187Z,8.60
2023-01-08T21:27:54.118Z,8.50
2023-01-08T21:30:20.906Z,8.30
2023-01-08T21:32:47.821Z,8.30
2023-01-08T21:35:14.724Z,8.20
2023-01-08T21:37:41.587Z,8.10
2023-01-08T21:40:08.787Z,8.00
2023-01-08T21:42:56.594Z,8.00
2023-01-08T21:45:27.644Z,7.90
2023-01-08T21:47:56.775Z,7.90
2023-01-08T21:50:24.755Z,7.80
2023-01-08T21:53:10.259Z,7.80
2023-01-08T21:55:37.304Z,7.80
2023-01-08T21:58:04.147Z,7.80
2023-01-08T22:00:31.380Z,7.70
2023-01-08T22:02:58.586Z,7.70
2023-01-08T22:05:26.691Z,7.70
2023-01-08T22:07:53.583Z,7.70
2023-01-08T22:10:20.476Z,7.60
2023-01-08T22:12:47.425Z,7.70
2023-01-08T22:15:14.385Z,7.70
2023-01-08T22:17:41.244Z,7.80
2023-01-08T22:20:09.790Z,7.80
2023-01-08T22:22:37.119Z,7.70
2023-01-08T22:25:05.386Z,7.80
2023-01-08T22:27:32.388Z,7.80
2023-01-08T22:29:59.219Z,7.90
2023-01-08T22:32:26.072Z,7.80
2023-01-08T22:34:52.995Z,7.80
2023-01-08T22:37:21.994Z,7.80
2023-01-08T22:39:49.361Z,7.80
2023-01-08T22:42:16.810Z,7.80
2023-01-08T22:44:43.796Z,7.80
2023-01-08T22:47:10.628Z,7.80
2023-01-08T22:49:37.569Z,7.80
2023-01-08T22:52:04.458Z,7.80
2023-01-08T22:54:31.368Z,7.70
2023-01-08T22:56:58.205Z,7.70
2023-01-08T22:59:25.205Z,7.80
2023-01-08T23:01:52.167Z,7.80
2023-01-08T23:04:19.060Z,7.80
2023-01-08T23:06:46.005Z,7.70
2023-01-08T23:09:12.833Z,7.70
2023-01-08T23:11:39.798Z,7.70
2023-01-08T23:14:06.743Z,7.70
2023-01-08T23:16:33.558Z,7.70
2023-01-08T23:19:00.684Z,7.70
2023-01-08T23:21:28.508Z,7.60
2023-01-08T23:23:55.818Z,7.70
2023-01-08T23:26:24.003Z,7.60
2023-01-08T23:28:51.787Z,7.60
2023-01-08T23:31:20.287Z,7.60
2023-01-08T23:33:47.091Z,7.60
2023-01-08T23:36:18.272Z,7.60
2023-01-08T23:38:46.362Z,7.60
2023-01-08T23:41:13.159Z,7.60
2023-01-08T23:43:40.043Z,7.70
2023-01-08T23:46:07.130Z,7.70
2023-01-08T23:48:33.953Z,7.70
2023-01-08T23:51:01.038Z,7.70
2023-01-08T23:53:27.903Z,7.70
2023-01-08T23:55:54.773Z,7.80
2023-01-08T23:58:21.565Z,7.80
